Time;durP1;ratioP1;P1;durP2;ratioP2;P2;SDS_P1;SDS_P2;PMS_P1;PMS_P2;Temp;Humidity;BMP_temperature;BMP_pressure;BME280_temperature;BME280_humidity;BME280_pressure;Samples;Min_cycle;Max_cycle;Signal;HPM_P1;HPM_P2
2021/01/25 00:00:56;;;;;;;37.90;20.30;;;;;;;0.91;82.18;99225.69;5041278;28;20232;-83
2021/01/25 00:03:22;;;;;;;41.77;21.13;;;;;;;0.91;82.22;99230.09;5048280;28;20932;-83
2021/01/25 00:05:47;;;;;;;38.10;19.63;;;;;;;0.93;82.09;99223.00;5049285;28;20209;-83
2021/01/25 00:08:13;;;;;;;41.90;20.60;;;;;;;0.94;82.13;99229.94;5048340;28;20301;-83
2021/01/25 00:10:39;;;;;;;36.37;19.57;;;;;;;0.94;82.40;99227.31;5046393;28;20690;-82
2021/01/25 00:13:05;;;;;;;37.07;19.27;;;;;;;0.94;82.23;99228.19;5042579;28;20244;-84
2021/01/25 00:15:31;;;;;;;38.33;20.77;;;;;;;0.95;82.38;99222.00;5043887;28;20217;-83
2021/01/25 00:17:58;;;;;;;39.00;19.37;;;;;;;0.95;82.51;99224.63;5035969;28;20720;-82
2021/01/25 00:20:24;;;;;;;35.50;19.20;;;;;;;0.97;82.41;99221.94;5050086;28;20225;-83
2021/01/25 00:22:50;;;;;;;40.07;18.63;;;;;;;0.98;82.43;99226.25;5051339;28;20218;-83
2021/01/25 00:25:17;;;;;;;36.23;19.17;;;;;;;0.98;82.30;99227.13;5050025;28;20229;-82
2021/01/25 00:27:43;;;;;;;38.97;19.13;;;;;;;0.99;82.49;99234.06;5038554;28;20264;-83
2021/01/25 00:30:16;;;;;;;32.80;17.97;;;;;;;1.00;82.46;99232.28;5043076;28;20648;-83
2021/01/25 00:32:42;;;;;;;37.10;18.30;;;;;;;1.01;82.73;99236.63;5046156;28;20202;-83
2021/01/25 00:35:10;;;;;;;35.53;19.40;;;;;;;1.02;82.04;99231.31;5055074;28;20205;-83
2021/01/25 00:37:36;;;;;;;38.13;19.73;;;;;;;1.02;82.43;99226.06;5046111;28;20864;-84
2021/01/25 00:40:03;;;;;;;34.97;19.10;;;;;;;1.04;82.27;99226.84;5054099;28;20884;-83
2021/01/25 00:42:29;;;;;;;32.73;18.97;;;;;;;1.03;82.39;99229.53;5050904;28;20209;-81
2021/01/25 00:44:55;;;;;;;33.60;17.83;;;;;;;1.04;82.43;99231.22;5044412;28;20321;-82
2021/01/25 00:47:21;;;;;;;33.00;17.73;;;;;;;1.04;82.52;99233.84;5054756;28;20208;-84
2021/01/25 00:49:47;;;;;;;34.17;17.77;;;;;;;1.05;82.46;99240.81;5048730;28;20222;-84
2021/01/25 00:52:14;;;;;;;28.87;17.23;;;;;;;1.05;82.19;99232.94;5042343;28;20210;-83
2021/01/25 00:54:40;;;;;;;31.83;16.40;;;;;;;1.04;82.28;99236.47;5049346;28;20198;-81
2021/01/25 00:57:06;;;;;;;27.20;15.57;;;;;;;1.05;82.02;99232.94;5064243;28;20288;-84
2021/01/25 00:59:32;;;;;;;32.57;16.67;;;;;;;1.06;82.13;99239.03;5064633;28;20229;-84
2021/01/25 01:01:58;;;;;;;31.20;17.17;;;;;;;1.05;81.96;99243.41;5054478;28;20215;-83
2021/01/25 01:04:24;;;;;;;31.77;17.53;;;;;;;1.03;82.15;99229.53;5062926;28;20221;-83
2021/01/25 01:06:50;;;;;;;30.47;16.90;;;;;;;1.05;82.01;99240.81;5055891;28;20220;-83
2021/01/25 01:09:19;;;;;;;35.17;18.47;;;;;;;1.04;82.13;99242.56;5056844;28;20675;-84
2021/01/25 01:11:45;;;;;;;31.67;15.93;;;;;;;1.04;82.13;99236.47;5048295;28;20269;-82
2021/01/25 01:14:11;;;;;;;26.60;15.83;;;;;;;1.05;81.98;99238.19;5060419;28;20208;-85
2021/01/25 01:16:37;;;;;;;26.07;15.00;;;;;;;1.04;81.66;99231.22;5053404;28;20202;-84
2021/01/25 01:19:03;;;;;;;28.17;16.20;;;;;;;1.04;81.94;99233.84;5052650;28;20252;-85
2021/01/25 01:21:29;;;;;;;24.77;14.83;;;;;;;1.05;81.47;99238.19;5047384;28;20264;-81
2021/01/25 01:23:55;;;;;;;26.60;14.37;;;;;;;1.04;81.82;99234.69;5056201;28;20332;-82
2021/01/25 01:26:22;;;;;;;24.83;14.40;;;;;;;1.01;81.30;99234.00;5058307;28;20202;-83
2021/01/25 01:28:48;;;;;;;27.33;15.40;;;;;;;1.02;81.68;99235.69;5049694;28;20202;-83
2021/01/25 01:31:14;;;;;;;25.53;14.07;;;;;;;1.00;81.86;99235.75;5053227;28;20252;-83
2021/01/25 01:33:40;;;;;;;30.10;16.07;;;;;;;0.98;81.35;99232.34;5048235;28;20716;-84
2021/01/25 01:36:07;;;;;;;26.43;13.93;;;;;;;0.98;81.27;99239.38;5048710;28;20278;-83
2021/01/25 01:38:33;;;;;;;26.03;15.90;;;;;;;0.96;81.28;99234.19;5056225;28;20206;-83
2021/01/25 01:40:59;;;;;;;25.57;15.00;;;;;;;0.96;81.27;99230.72;5049474;28;20798;-82
2021/01/25 01:43:27;;;;;;;24.77;14.90;;;;;;;0.93;80.94;99223.84;5057443;28;20233;-81
2021/01/25 01:45:53;;;;;;;27.77;14.90;;;;;;;0.94;81.28;99229.94;5043359;28;20634;-84
2021/01/25 01:48:19;;;;;;;22.97;13.80;;;;;;;0.92;80.99;99227.41;5057009;28;20206;-83
2021/01/25 01:50:45;;;;;;;24.63;15.00;;;;;;;0.90;80.91;99226.63;5041158;28;20224;-83
2021/01/25 01:53:11;;;;;;;25.70;13.70;;;;;;;0.90;80.62;99225.75;5044853;28;20214;-80
2021/01/25 01:55:38;;;;;;;21.93;13.23;;;;;;;0.88;80.99;99215.38;5051499;28;20203;-84
2021/01/25 01:58:04;;;;;;;22.93;14.33;;;;;;;0.87;80.62;99224.16;5051899;28;20222;-83
2021/01/25 02:00:31;;;;;;;22.57;14.63;;;;;;;0.86;80.89;99227.69;5057723;28;20253;-83
2021/01/25 02:02:57;;;;;;;26.60;13.93;;;;;;;0.84;80.81;99223.44;5057707;28;20209;-83
2021/01/25 02:05:23;;;;;;;27.30;14.63;;;;;;;0.83;80.78;99222.59;5045008;28;20226;-82
2021/01/25 02:07:51;;;;;;;27.43;15.00;;;;;;;0.82;80.49;99220.91;5041273;28;20265;-82
2021/01/25 02:10:19;;;;;;;24.07;14.23;;;;;;;0.81;80.49;99226.19;5057670;28;20225;-81
2021/01/25 02:12:48;;;;;;;25.07;14.53;;;;;;;0.80;80.25;99216.63;5047557;28;20198;-83
2021/01/25 02:15:16;;;;;;;21.53;12.97;;;;;;;0.78;80.53;99224.56;5056957;28;20551;-83
2021/01/25 02:17:43;;;;;;;24.30;13.27;;;;;;;0.76;80.59;99221.16;5057005;28;20240;-83
2021/01/25 02:20:17;;;;;;;24.60;13.10;;;;;;;0.76;80.51;99223.78;5049592;28;20234;-84
2021/01/25 02:23:23;;;;;;;26.30;14.40;;;;;;;0.73;80.62;99220.44;5053580;28;20212;-84
2021/01/25 02:25:54;;;;;;;21.63;12.27;;;;;;;0.71;80.49;99223.16;4976098;28;20208;-83
2021/01/25 02:28:21;;;;;;;27.63;15.03;;;;;;;0.70;80.22;99221.47;5028240;28;20202;-84
2021/01/25 02:30:47;;;;;;;27.30;14.47;;;;;;;0.69;80.28;99228.47;5049295;28;20240;-83
2021/01/25 02:33:16;;;;;;;22.57;13.73;;;;;;;0.67;80.29;99222.47;5056157;28;20209;-84
2021/01/25 02:35:43;;;;;;;28.50;14.40;;;;;;;0.65;80.43;99220.81;5047246;28;20202;-85
2021/01/25 02:38:12;;;;;;;23.57;13.83;;;;;;;0.64;80.27;99221.75;5055993;28;20209;-83
2021/01/25 02:40:39;;;;;;;22.60;13.70;;;;;;;0.64;79.91;99221.75;5049782;28;20236;-83
2021/01/25 02:43:06;;;;;;;23.07;13.13;;;;;;;0.61;80.58;99222.72;5041999;28;20683;-84
2021/01/25 02:45:33;;;;;;;27.97;13.67;;;;;;;0.60;80.23;99225.41;5045678;28;20210;-84
2021/01/25 02:48:01;;;;;;;24.93;13.50;;;;;;;0.58;80.49;99225.47;5042342;28;20216;-83
2021/01/25 02:50:27;;;;;;;23.67;13.73;;;;;;;0.57;80.51;99220.31;5038890;28;20222;-82
2021/01/25 02:52:53;;;;;;;29.37;14.17;;;;;;;0.57;80.32;99222.94;5057048;28;20202;-83
2021/01/25 02:55:19;;;;;;;24.30;13.63;;;;;;;0.56;80.42;99227.31;5043176;28;20259;-83
2021/01/25 02:57:46;;;;;;;25.10;14.80;;;;;;;0.55;80.48;99223.00;5052599;28;20205;-81
2021/01/25 03:00:13;;;;;;;21.67;13.30;;;;;;;0.53;80.25;99232.72;5069419;22;20278;-65
2021/01/25 03:02:41;;;;;;;29.07;14.20;;;;;;;0.54;80.41;99230.91;5066881;28;20200;-65
2021/01/25 03:05:08;;;;;;;27.07;13.53;;;;;;;0.52;80.39;99220.53;5063071;28;20228;-65
2021/01/25 03:07:34;;;;;;;25.63;12.23;;;;;;;0.51;80.37;99224.06;5060254;28;20217;-65
2021/01/25 03:10:01;;;;;;;24.30;12.47;;;;;;;0.49;80.28;99233.78;5060846;28;20219;-65
2021/01/25 03:12:27;;;;;;;22.80;13.43;;;;;;;0.48;80.27;99229.44;5081633;22;20236;-62
2021/01/25 03:14:54;;;;;;;21.27;13.80;;;;;;;0.48;80.20;99234.69;5061877;28;20297;-64
2021/01/25 03:17:20;;;;;;;24.70;11.77;;;;;;;0.47;80.16;99232.13;5062438;28;20232;-63
2021/01/25 03:19:47;;;;;;;19.90;12.50;;;;;;;0.45;80.25;99234.81;5062671;28;20200;-65
2021/01/25 03:22:13;;;;;;;20.70;12.07;;;;;;;0.45;80.32;99233.97;5061190;28;20226;-63
2021/01/25 03:24:39;;;;;;;19.50;11.60;;;;;;;0.45;80.10;99236.59;5061023;28;20251;-63
2021/01/25 03:27:05;;;;;;;22.53;11.80;;;;;;;0.44;80.18;99235.72;5055933;28;20207;-64
2021/01/25 03:29:32;;;;;;;21.37;12.10;;;;;;;0.44;80.17;99234.88;5060699;28;20209;-64
2021/01/25 03:31:58;;;;;;;18.33;11.20;;;;;;;0.43;80.26;99244.50;5060707;28;20225;-64
2021/01/25 03:34:24;;;;;;;22.60;10.87;;;;;;;0.44;80.43;99250.59;5051048;28;20213;-63
2021/01/25 03:36:51;;;;;;;20.17;11.47;;;;;;;0.42;80.18;99248.03;5063578;28;20322;-64
2021/01/25 03:39:17;;;;;;;21.90;11.60;;;;;;;0.43;79.84;99257.59;5051946;28;20202;-64
2021/01/25 03:41:43;;;;;;;18.20;11.03;;;;;;;0.42;79.91;99258.53;5058276;28;20225;-64
2021/01/25 03:44:09;;;;;;;18.90;10.67;;;;;;;0.42;79.93;99258.53;5051355;28;20229;-63
2021/01/25 03:46:35;;;;;;;16.43;10.47;;;;;;;0.41;80.00;99255.97;5061651;28;20233;-63
2021/01/25 03:49:01;;;;;;;19.80;11.70;;;;;;;0.40;79.82;99264.75;5061780;28;20734;-66
2021/01/25 03:51:27;;;;;;;20.70;10.90;;;;;;;0.39;79.80;99256.03;5065486;28;20200;-65
2021/01/25 03:53:54;;;;;;;20.17;10.70;;;;;;;0.39;79.68;99258.66;5059745;28;20205;-66
2021/01/25 03:56:20;;;;;;;20.60;11.60;;;;;;;0.35;79.46;99259.72;5057568;28;20206;-66
2021/01/25 03:58:46;;;;;;;21.10;12.13;;;;;;;0.34;79.57;99263.25;5061730;28;20572;-67
2021/01/25 04:01:12;;;;;;;18.60;11.53;;;;;;;0.33;79.51;99265.03;5062772;28;20213;-66
2021/01/25 04:03:38;;;;;;;20.87;12.20;;;;;;;0.30;79.38;99262.53;5057324;28;20236;-66
2021/01/25 04:06:04;;;;;;;20.87;11.70;;;;;;;0.29;79.27;99265.22;5062106;28;20213;-65
2021/01/25 04:08:31;;;;;;;22.07;11.07;;;;;;;0.26;79.40;99260.13;5066261;28;20204;-65
2021/01/25 04:10:57;;;;;;;17.80;11.03;;;;;;;0.24;79.35;99262.78;5064622;28;20674;-65
2021/01/25 04:13:24;;;;;;;21.43;11.37;;;;;;;0.21;79.43;99267.31;5057801;28;20225;-64
2021/01/25 04:15:50;;;;;;;18.57;11.03;;;;;;;0.18;79.49;99270.09;5061860;28;20599;-66
2021/01/25 04:18:16;;;;;;;19.80;10.67;;;;;;;0.15;79.35;99271.06;5059783;28;20210;-65
2021/01/25 04:20:42;;;;;;;18.90;11.20;;;;;;;0.14;79.37;99276.38;5059570;28;20243;-65
2021/01/25 04:23:08;;;;;;;19.27;11.87;;;;;;;0.12;79.15;99276.44;5062054;28;20375;-68
2021/01/25 04:25:34;;;;;;;17.27;10.87;;;;;;;0.09;79.41;99281.78;5059968;28;20225;-66
2021/01/25 04:28:01;;;;;;;15.70;10.63;;;;;;;0.08;79.16;99284.47;5062024;28;20719;-63
2021/01/25 04:30:27;;;;;;;17.40;10.77;;;;;;;0.04;79.20;99288.13;5058580;28;20201;-63
2021/01/25 04:32:53;;;;;;;19.70;11.07;;;;;;;0.00;79.42;99290.03;5056995;28;20224;-63
2021/01/25 04:35:19;;;;;;;17.13;10.73;;;;;;;-0.02;79.39;99286.63;5060623;28;20204;-63
2021/01/25 04:37:45;;;;;;;18.77;10.53;;;;;;;-0.05;79.25;99290.22;5055177;28;20205;-65
2021/01/25 04:40:12;;;;;;;17.03;10.50;;;;;;;-0.07;79.49;99294.66;5057648;28;20217;-63
2021/01/25 04:42:40;;;;;;;15.07;10.50;;;;;;;-0.09;79.18;99293.03;5058655;28;20698;-63
2021/01/25 04:45:09;;;;;;;18.43;11.43;;;;;;;-0.12;79.33;99299.25;5061805;28;20248;-63
2021/01/25 04:47:36;;;;;;;16.73;11.00;;;;;;;-0.16;79.47;99302.03;5055844;28;20551;-65
2021/01/25 04:50:04;;;;;;;18.20;10.80;;;;;;;-0.20;79.20;99297.88;5058283;28;20215;-63
2021/01/25 04:52:31;;;;;;;14.87;10.03;;;;;;;-0.22;79.04;99304.94;5058234;28;20243;-64
2021/01/25 04:54:57;;;;;;;17.50;10.43;;;;;;;-0.25;79.41;99305.91;5051531;28;20216;-63
2021/01/25 04:57:23;;;;;;;16.57;10.27;;;;;;;-0.29;79.22;99301.69;5059753;28;20206;-63
2021/01/25 04:59:51;;;;;;;21.83;11.53;;;;;;;-0.32;79.48;99298.34;5053912;28;20205;-65
2021/01/25 05:02:19;;;;;;;17.73;10.70;;;;;;;-0.36;79.31;99305.50;5055363;28;20232;-63
2021/01/25 05:04:46;;;;;;;18.60;10.27;;;;;;;-0.38;79.61;99309.94;5059288;28;20281;-64
2021/01/25 05:07:13;;;;;;;14.17;9.23;;;;;;;-0.39;79.59;99308.22;5053238;28;20209;-64
2021/01/25 05:09:39;;;;;;;15.63;9.70;;;;;;;-0.41;79.66;99307.44;5053376;28;20217;-63
2021/01/25 05:12:05;;;;;;;16.57;9.73;;;;;;;-0.44;79.67;99305.78;5056740;28;20239;-63
2021/01/25 05:14:38;;;;;;;19.87;10.10;;;;;;;-0.45;79.49;99305.84;5054355;28;20207;-65
2021/01/25 05:17:08;;;;;;;16.23;10.07;;;;;;;-0.48;79.50;99304.19;5057030;28;20584;-63
2021/01/25 05:19:36;;;;;;;18.40;10.37;;;;;;;-0.50;80.03;99303.41;5059192;28;20217;-63
2021/01/25 05:22:02;;;;;;;17.17;9.50;;;;;;;-0.53;79.61;99307.91;5055998;28;20267;-63
2021/01/25 05:24:28;;;;;;;18.70;10.57;;;;;;;-0.58;79.80;99304.63;5054083;28;20247;-64
2021/01/25 05:26:56;;;;;;;17.80;9.93;;;;;;;-0.61;79.56;99302.13;5054912;28;20682;-64
2021/01/25 05:29:24;;;;;;;18.90;10.37;;;;;;;-0.63;79.92;99296.97;5054348;28;20202;-62
2021/01/25 05:31:51;;;;;;;18.70;10.37;;;;;;;-0.67;79.77;99303.22;5052712;28;20221;-64
2021/01/25 05:34:18;;;;;;;18.37;10.30;;;;;;;-0.68;79.90;99305.91;5055806;28;20201;-64
2021/01/25 05:36:45;;;;;;;18.57;9.97;;;;;;;-0.71;79.96;99297.25;5062197;28;20208;-63
2021/01/25 05:39:15;;;;;;;15.20;9.30;;;;;;;-0.76;79.87;99307.06;5060496;28;20217;-63
2021/01/25 05:41:52;;;;;;;16.83;9.90;;;;;;;-0.79;79.75;99304.56;5055671;28;20225;-63
2021/01/25 05:44:18;;;;;;;17.27;9.57;;;;;;;-0.82;80.32;99304.66;5056136;28;20287;-60
2021/01/25 05:46:44;;;;;;;16.77;9.50;;;;;;;-0.86;80.08;99303.06;5062649;28;20203;-60
2021/01/25 05:49:11;;;;;;;18.23;9.60;;;;;;;-0.88;80.00;99306.66;5057969;28;20209;-62
2021/01/25 05:51:37;;;;;;;14.23;8.90;;;;;;;-0.92;80.09;99300.72;5061777;28;20706;-62
2021/01/25 05:54:04;;;;;;;16.47;9.00;;;;;;;-0.94;80.21;99307.78;5060765;28;20202;-63
2021/01/25 05:56:30;;;;;;;16.70;9.93;;;;;;;-0.96;80.11;99314.81;5063144;28;20681;-64
2021/01/25 05:58:56;;;;;;;13.30;9.00;;;;;;;-0.97;80.35;99307.03;5061371;28;20205;-63
2021/01/25 06:01:24;;;;;;;14.37;9.03;;;;;;;-1.00;80.16;99309.75;5060126;28;20232;-62
2021/01/25 06:03:50;;;;;;;14.33;8.57;;;;;;;-1.02;80.68;99312.41;5062858;28;20776;-63
2021/01/25 06:06:22;;;;;;;14.67;8.90;;;;;;;-1.05;80.55;99320.38;5054958;28;20674;-62
2021/01/25 06:08:53;;;;;;;12.50;8.67;;;;;;;-1.08;80.31;99321.34;5065703;28;20209;-65
2021/01/25 06:11:22;;;;;;;14.17;9.10;;;;;;;-1.10;80.71;99323.16;5053791;28;20205;-64
2021/01/25 06:13:53;;;;;;;14.27;8.67;;;;;;;-1.11;80.41;99325.84;5055726;28;20205;-63
2021/01/25 06:16:22;;;;;;;14.20;8.87;;;;;;;-1.14;80.40;99318.97;5058500;28;20206;-64
2021/01/25 06:18:49;;;;;;;13.77;8.40;;;;;;;-1.15;80.48;99326.84;5059588;28;20250;-64
2021/01/25 06:21:21;;;;;;;13.80;8.93;;;;;;;-1.18;80.77;99325.19;5063166;28;20209;-63
2021/01/25 06:23:47;;;;;;;16.83;9.47;;;;;;;-1.19;80.86;99331.34;5062064;28;20200;-64
2021/01/25 06:26:14;;;;;;;16.10;9.73;;;;;;;-1.19;81.05;99336.56;5061566;28;20206;-63
2021/01/25 06:28:42;;;;;;;14.07;8.10;;;;;;;-1.20;80.55;99334.00;5051432;28;20206;-68
2021/01/25 06:31:08;;;;;;;14.57;8.63;;;;;;;-1.20;80.84;99341.84;5051108;28;20209;-68
2021/01/25 06:33:37;;;;;;;16.23;9.43;;;;;;;-1.19;80.58;99346.16;5053146;28;20209;-68
2021/01/25 06:36:07;;;;;;;17.67;9.70;;;;;;;-1.19;80.84;99341.78;5058848;28;20205;-68
2021/01/25 06:38:35;;;;;;;19.23;9.90;;;;;;;-1.18;80.88;99355.69;5060487;28;20209;-68
2021/01/25 06:41:09;;;;;;;14.80;9.00;;;;;;;-1.18;81.39;99355.69;5060557;28;20599;-68
2021/01/25 06:43:35;;;;;;;20.03;10.87;;;;;;;-1.19;80.94;99354.84;5055771;28;20194;-68
2021/01/25 06:46:02;;;;;;;19.00;10.30;;;;;;;-1.18;81.54;99368.75;5061386;28;20220;-68
2021/01/25 06:48:29;;;;;;;16.93;9.23;;;;;;;-1.18;81.23;99368.75;5061838;28;20663;-68
2021/01/25 06:50:55;;;;;;;17.10;10.50;;;;;;;-1.18;81.10;99368.75;5054851;28;20684;-67
2021/01/25 06:53:26;;;;;;;17.13;10.03;;;;;;;-1.17;81.50;99373.06;5062269;28;20278;-68
2021/01/25 06:55:57;;;;;;;17.73;10.73;;;;;;;-1.16;81.51;99374.78;5057324;28;20262;-68
2021/01/25 06:58:27;;;;;;;16.67;8.87;;;;;;;-1.17;81.77;99384.38;5062154;28;20217;-67
2021/01/25 07:00:53;;;;;;;19.57;10.40;;;;;;;-1.16;81.34;99382.63;5050771;28;20205;-68
2021/01/25 07:03:21;;;;;;;17.47;11.00;;;;;;;-1.17;81.33;99384.38;5057596;28;20232;-70
2021/01/25 07:05:50;;;;;;;17.60;10.43;;;;;;;-1.17;81.27;99393.97;5054031;28;20227;-68
2021/01/25 07:08:21;;;;;;;21.17;11.47;;;;;;;-1.18;81.67;99400.97;5059017;28;20209;-69
2021/01/25 07:10:55;;;;;;;29.57;12.37;;;;;;;-1.18;81.44;99397.50;5058116;28;20201;-68
2021/01/25 07:13:22;;;;;;;25.17;13.23;;;;;;;-1.19;81.91;99399.25;5052470;28;20229;-68
2021/01/25 07:15:49;;;;;;;19.90;11.23;;;;;;;-1.19;81.46;99414.94;5053436;28;20197;-68
2021/01/25 07:18:15;;;;;;;19.33;11.10;;;;;;;-1.20;81.43;99412.38;5050105;28;20205;-69
2021/01/25 07:20:46;;;;;;;22.30;11.03;;;;;;;-1.20;81.92;99412.38;5055482;28;20656;-68
2021/01/25 07:23:16;;;;;;;22.37;13.03;;;;;;;-1.20;81.87;99423.66;5066908;28;20217;-68
2021/01/25 07:25:42;;;;;;;18.53;11.50;;;;;;;-1.19;82.13;99424.53;5058371;28;20224;-68
2021/01/25 07:28:08;;;;;;;18.73;10.43;;;;;;;-1.20;81.71;99423.66;5061159;28;20208;-68
2021/01/25 07:30:34;;;;;;;20.00;10.50;;;;;;;-1.21;81.83;99428.94;5056852;28;20758;-68
2021/01/25 07:33:02;;;;;;;21.37;10.93;;;;;;;-1.23;81.98;99433.38;5057197;28;20270;-69
2021/01/25 07:35:28;;;;;;;14.80;9.83;;;;;;;-1.24;81.56;99429.91;5051552;28;20581;-69
2021/01/25 07:37:55;;;;;;;18.87;10.10;;;;;;;-1.23;81.89;99433.38;5057022;28;20292;-69
2021/01/25 07:40:23;;;;;;;17.37;10.57;;;;;;;-1.23;81.91;99438.59;5050007;28;20724;-68
2021/01/25 07:42:49;;;;;;;20.20;10.97;;;;;;;-1.22;82.13;99437.69;5049026;28;20229;-69
2021/01/25 07:45:15;;;;;;;15.17;9.47;;;;;;;-1.21;82.13;99444.63;5054226;28;20644;-69
2021/01/25 07:47:45;;;;;;;17.87;10.53;;;;;;;-1.21;81.91;99445.47;5058401;28;20209;-68
2021/01/25 07:50:11;;;;;;;16.27;9.93;;;;;;;-1.21;81.91;99442.84;5058313;28;20212;-71
2021/01/25 07:52:37;;;;;;;17.43;10.17;;;;;;;-1.19;81.74;99450.66;5057295;28;20229;-68
2021/01/25 07:55:12;;;;;;;16.73;9.93;;;;;;;-1.19;81.85;99445.41;5047788;28;20565;-68
2021/01/25 07:57:38;;;;;;;17.30;9.50;;;;;;;-1.19;82.08;99454.13;5051643;28;20202;-69
2021/01/25 08:00:17;;;;;;;17.27;10.30;;;;;;;-1.18;82.08;99454.97;5053741;28;20205;-71
2021/01/25 08:02:48;;;;;;;14.63;9.90;;;;;;;-1.17;81.97;99456.69;5048417;28;20228;-69
2021/01/25 08:05:15;;;;;;;16.57;8.77;;;;;;;-1.19;82.11;99464.56;5046858;28;20240;-70
2021/01/25 08:07:43;;;;;;;16.90;9.50;;;;;;;-1.20;82.19;99456.78;5049880;28;20270;-69
2021/01/25 08:10:11;;;;;;;19.43;10.67;;;;;;;-1.21;82.52;99465.50;5054997;28;20675;-64
2021/01/25 08:12:38;;;;;;;15.33;10.03;;;;;;;-1.19;82.14;99468.94;5050458;28;20707;-68
2021/01/25 08:15:10;;;;;;;17.30;9.97;;;;;;;-1.17;82.43;99469.72;5048438;28;20252;-67
2021/01/25 08:17:41;;;;;;;14.93;9.77;;;;;;;-1.17;82.19;99472.34;5052624;28;20193;-68
2021/01/25 08:20:12;;;;;;;17.37;10.20;;;;;;;-1.18;82.24;99470.63;5054509;28;20201;-69
2021/01/25 08:22:47;;;;;;;18.90;9.67;;;;;;;-1.19;82.32;99468.94;5049549;28;20225;-68
2021/01/25 08:25:18;;;;;;;18.70;10.57;;;;;;;-1.17;82.06;99482.78;5051246;28;20304;-70
2021/01/25 08:27:55;;;;;;;18.03;10.23;;;;;;;-1.14;82.42;99488.78;5049403;28;20196;-68
2021/01/25 08:30:23;;;;;;;15.10;9.67;;;;;;;-1.13;82.72;99484.41;5049564;28;20205;-67
2021/01/25 08:32:52;;;;;;;17.03;10.80;;;;;;;-1.10;82.00;99486.91;5045309;28;20226;-72
2021/01/25 08:35:32;;;;;;;17.20;10.07;;;;;;;-1.08;82.48;99487.72;5048007;28;20803;-68
2021/01/25 08:38:24;;;;;;;20.17;10.80;;;;;;;-1.05;82.91;99487.59;5049513;28;20217;-68
2021/01/25 08:40:51;;;;;;;20.47;11.47;;;;;;;-1.03;82.93;99488.41;5049478;28;20210;-68
2021/01/25 08:43:20;;;;;;;29.70;12.50;;;;;;;-1.00;82.39;99493.53;5047224;28;20226;-68
2021/01/25 08:45:48;;;;;;;22.03;11.97;;;;;;;-0.95;82.31;99503.81;5046057;28;20221;-69
2021/01/25 08:48:14;;;;;;;28.47;13.67;;;;;;;-0.94;82.71;99501.16;5050045;28;20217;-69
2021/01/25 08:50:41;;;;;;;28.37;15.57;;;;;;;-0.90;82.66;99504.53;5049879;28;20571;-68
2021/01/25 08:53:10;;;;;;;17.97;12.47;;;;;;;-0.88;82.84;99514.00;5050065;28;20315;-68
2021/01/25 08:55:39;;;;;;;21.67;12.77;;;;;;;-0.85;82.74;99515.66;5049049;28;20198;-68
2021/01/25 08:58:17;;;;;;;18.13;11.30;;;;;;;-0.81;82.85;99520.72;5050813;28;20670;-70
2021/01/25 09:00:43;;;;;;;20.83;12.00;;;;;;;-0.77;82.96;99524.09;5049834;28;20262;-69
2021/01/25 09:03:12;;;;;;;20.17;12.60;;;;;;;-0.75;82.72;99525.75;5049577;28;20330;-68
2021/01/25 09:05:39;;;;;;;21.77;11.43;;;;;;;-0.72;82.68;99533.47;5050197;28;20236;-68
2021/01/25 09:08:05;;;;;;;26.90;12.20;;;;;;;-0.67;82.75;99529.84;5051456;28;20213;-67
2021/01/25 09:10:32;;;;;;;25.23;12.90;;;;;;;-0.64;82.88;99534.97;5050878;28;20208;-67
2021/01/25 09:12:58;;;;;;;27.20;14.13;;;;;;;-0.59;83.00;99535.66;5213535;22;20239;-71
2021/01/25 09:15:26;;;;;;;25.33;13.47;;;;;;;-0.55;83.12;99538.13;5044207;28;20202;-72
2021/01/25 09:17:52;;;;;;;23.77;12.13;;;;;;;-0.48;82.86;99539.56;5041844;28;20198;-71
2021/01/25 09:20:19;;;;;;;25.90;12.83;;;;;;;-0.42;83.15;99538.50;5042381;28;20205;-71
2021/01/25 09:22:45;;;;;;;17.03;10.33;;;;;;;-0.34;83.29;99544.31;5042986;28;20233;-72
2021/01/25 09:25:12;;;;;;;16.23;9.00;;;;;;;-0.24;83.42;99545.69;5047166;28;20221;-71
2021/01/25 09:27:39;;;;;;;15.70;9.00;;;;;;;-0.13;83.33;99546.13;5040732;28;20687;-71
2021/01/25 09:30:06;;;;;;;16.77;9.97;;;;;;;-0.04;83.26;99550.19;5046963;28;20205;-71
2021/01/25 09:32:32;;;;;;;16.20;9.13;;;;;;;0.08;83.29;99546.22;5041844;28;20213;-71
2021/01/25 09:34:58;;;;;;;17.63;10.27;;;;;;;0.17;83.05;99553.75;5043490;28;20206;-72
2021/01/25 09:37:25;;;;;;;14.23;9.57;;;;;;;0.26;83.23;99558.63;5045490;28;20597;-72
2021/01/25 09:39:51;;;;;;;15.73;9.00;;;;;;;0.34;83.06;99556.56;5041871;28;20205;-72
2021/01/25 09:42:18;;;;;;;15.13;8.50;;;;;;;0.42;82.84;99564.97;5042950;28;20746;-72
2021/01/25 09:44:44;;;;;;;14.47;9.70;;;;;;;0.49;82.46;99562.97;5041449;28;20229;-71
2021/01/25 09:47:10;;;;;;;27.20;17.03;;;;;;;0.56;82.42;99564.41;5044411;28;20202;-71
2021/01/25 09:49:36;;;;;;;42.90;25.27;;;;;;;0.63;82.48;99564.13;5046274;28;20205;-71
2021/01/25 09:52:02;;;;;;;12.50;9.00;;;;;;;0.71;82.45;99562.97;5048226;28;20202;-71
2021/01/25 09:54:29;;;;;;;15.27;9.93;;;;;;;0.79;81.81;99561.72;5046399;28;20222;-71
2021/01/25 09:56:55;;;;;;;15.03;10.70;;;;;;;0.86;81.73;99572.81;5045468;28;20264;-72
2021/01/25 09:59:22;;;;;;;16.10;9.40;;;;;;;0.90;81.49;99569.13;5048137;28;20213;-71
2021/01/25 10:01:48;;;;;;;17.47;9.53;;;;;;;0.93;81.03;99576.88;5051020;28;20206;-70
2021/01/25 10:04:14;;;;;;;14.00;9.30;;;;;;;0.96;80.91;99574.13;5041238;28;20741;-69
2021/01/25 10:06:40;;;;;;;17.80;8.80;;;;;;;0.96;80.47;99572.38;5046074;28;20726;-69
2021/01/25 10:09:06;;;;;;;18.60;10.47;;;;;;;0.99;80.37;99576.63;5052656;28;20290;-69
2021/01/25 10:11:33;;;;;;;13.97;8.93;;;;;;;0.99;80.22;99574.00;5049506;28;20202;-69
2021/01/25 10:13:59;;;;;;;15.10;9.97;;;;;;;1.01;79.73;99585.28;5052525;28;20240;-69
2021/01/25 10:16:25;;;;;;;16.57;10.03;;;;;;;1.05;79.78;99581.63;5050618;28;20262;-69
2021/01/25 10:18:51;;;;;;;17.77;9.43;;;;;;;1.09;79.62;99585.81;5051497;28;20303;-69
2021/01/25 10:21:18;;;;;;;14.43;9.60;;;;;;;1.16;79.25;99591.66;5052157;28;20809;-69
2021/01/25 10:23:44;;;;;;;13.37;8.33;;;;;;;1.21;78.87;99594.97;5051027;28;20228;-69
2021/01/25 10:26:11;;;;;;;25.67;14.83;;;;;;;1.26;79.02;99593.81;5049305;28;20221;-69
2021/01/25 10:28:37;;;;;;;13.40;9.07;;;;;;;1.32;78.56;99596.19;5044382;28;20693;-69
2021/01/25 10:31:04;;;;;;;17.03;9.60;;;;;;;1.38;78.24;99598.56;5050255;28;20677;-69
2021/01/25 10:33:30;;;;;;;13.67;10.20;;;;;;;1.45;78.40;99607.00;5045215;28;20626;-69
2021/01/25 10:35:56;;;;;;;12.20;8.47;;;;;;;1.53;77.33;99601.44;5050929;28;20728;-70
2021/01/25 10:38:22;;;;;;;12.37;9.60;;;;;;;1.58;77.38;99602.97;5051796;28;20206;-69
2021/01/25 10:40:48;;;;;;;12.23;9.03;;;;;;;1.63;77.31;99608.00;5051606;28;20293;-70
2021/01/25 10:43:14;;;;;;;14.20;9.33;;;;;;;1.65;77.19;99619.28;5051185;28;20750;-69
2021/01/25 10:45:41;;;;;;;12.30;8.33;;;;;;;1.70;77.18;99619.94;5051581;28;20222;-69
2021/01/25 10:48:07;;;;;;;12.57;7.43;;;;;;;1.73;76.35;99625.06;5051236;28;20206;-69
2021/01/25 10:50:32;;;;;;;15.30;8.77;;;;;;;1.75;76.21;99631.09;5050926;28;20202;-70
2021/01/25 10:52:58;;;;;;;12.47;7.47;;;;;;;1.79;76.27;99627.44;5051023;28;20261;-69
2021/01/25 10:55:24;;;;;;;12.87;8.07;;;;;;;1.85;75.80;99628.91;5043278;28;20209;-69
2021/01/25 10:57:50;;;;;;;11.10;7.63;;;;;;;1.90;75.47;99624.31;5049439;28;20237;-69
2021/01/25 11:00:19;;;;;;;14.70;9.70;;;;;;;1.95;76.05;99628.44;5050877;28;20212;-69
2021/01/25 11:02:47;;;;;;;19.67;12.17;;;;;;;2.00;75.42;99630.84;5047926;28;20221;-69
2021/01/25 11:05:15;;;;;;;17.90;10.70;;;;;;;2.06;74.91;99634.06;5050075;28;20320;-69
2021/01/25 11:07:41;;;;;;;13.13;8.80;;;;;;;2.11;74.80;99633.03;5050885;28;20700;-69
2021/01/25 11:10:10;;;;;;;12.73;10.00;;;;;;;2.14;74.56;99640.75;5048469;28;20671;-69
2021/01/25 11:12:36;;;;;;;28.70;17.70;;;;;;;2.15;74.21;99642.47;5047071;28;20241;-69
2021/01/25 11:15:02;;;;;;;20.57;13.73;;;;;;;2.16;74.58;99637.13;5049756;28;20575;-69
2021/01/25 11:17:28;;;;;;;20.67;14.47;;;;;;;2.20;73.98;99645.72;5048698;28;20417;-69
2021/01/25 11:19:55;;;;;;;17.60;12.57;;;;;;;2.22;73.84;99641.25;5050412;28;20740;-69
2021/01/25 11:22:21;;;;;;;16.10;11.07;;;;;;;2.26;74.08;99642.81;5044122;28;20210;-69
2021/01/25 11:24:47;;;;;;;15.23;10.87;;;;;;;2.31;74.12;99649.59;5049143;28;20236;-69